This is the latest recevied weather packets stored in our database for station/object VA3JLF-1. If no packets are shown the sender has not sent any weather packets the latest 10 day(s).
| Time | Temp. | Humidity | Pressure | Rain* | Wind** | Luminosity | Snow |
|---|---|---|---|---|---|---|---|
| 1777910757 | 15° C | 66% | 1002.1 hPa | 0 mm | - | - | - |
| 1777910157 | 15.56° C | 62% | 1002.2 hPa | 0 mm | - | - | - |
| 1777909557 | 15° C | 64% | 1002.2 hPa | 0 mm | - | - | - |
| 1777908957 | 14.44° C | 67% | 1002.4 hPa | 0 mm | - | - | - |
| 1777908357 | 13.89° C | 65% | 1002.4 hPa | 0 mm | - | - | - |
| 1777907757 | 14.44° C | 65% | 1002.5 hPa | 0 mm | - | - | - |
| 1777907157 | 14.44° C | 64% | 1002.6 hPa | 0 mm | - | - | - |
| 1777906558 | 13.89° C | 67% | 1002.5 hPa | 0 mm | - | - | - |
| 1777905958 | 12.78° C | 70% | 1002.5 hPa | 0 mm | - | - | - |
| 1777905358 | 13.33° C | 72% | 1002.6 hPa | 0 mm | - | - | - |
| 1777904758 | 13.33° C | 70% | 1002.4 hPa | 0 mm | - | - | - |
| 1777904158 | 12.78° C | 70% | 1002.3 hPa | 0 mm | - | - | - |
| 1777903558 | 13.33° C | 69% | 1002.5 hPa | 0 mm | - | - | - |
| 1777902958 | 14.44° C | 65% | 1002.5 hPa | 0 mm | - | - | - |
| 1777902358 | 13.89° C | 65% | 1002.4 hPa | 0 mm | - | - | - |
| 1777901758 | 13.33° C | 66% | 1002.7 hPa | 0 mm | - | - | - |
| 1777901158 | 12.78° C | 67% | 1002.7 hPa | 0 mm | - | - | - |
| 1777900558 | 12.22° C | 73% | 1003.1 hPa | 0 mm | - | - | - |
| 1777899958 | 12.22° C | 69% | 1002.6 hPa | 0 mm | - | - | - |
| 1777899358 | 12.22° C | 69% | 1003 hPa | 0 mm | - | - | - |
| 1777898758 | 12.22° C | 73% | 1003 hPa | 0 mm | - | - | - |
| 1777898158 | 11.11° C | 74% | 1003.1 hPa | 0 mm | - | - | - |
| 1777897560 | 10° C | 76% | 1003.3 hPa | 0 mm | - | - | - |
| 1777896958 | 8.89° C | 82% | 1003.2 hPa | 0 mm | - | - | - |
| 1777896361 | 7.78° C | 84% | 1003.1 hPa | 0 mm | - | - | - |
* Rain latest hour (hover to see other rain measurements)
** Current wind speed in m/s (hover to see current wind gust speed)